createdAt,value
2022-10-30T00:02:23.191Z,95.00
2022-10-30T00:04:53.780Z,95.40
2022-10-30T00:07:25.234Z,95.70
2022-10-30T00:09:58.512Z,95.60
2022-10-30T00:12:30.382Z,95.50
2022-10-30T00:15:00.816Z,95.40
2022-10-30T00:17:31.338Z,95.20
2022-10-30T00:20:01.982Z,95.30
2022-10-30T00:22:32.407Z,95.20
2022-10-30T00:25:05.485Z,95.30
2022-10-30T00:27:37.441Z,95.90
2022-10-30T00:30:10.024Z,96.20
2022-10-30T00:32:40.542Z,96.20
2022-10-30T00:35:12.718Z,96.20
2022-10-30T00:37:43.676Z,96.30
2022-10-30T00:40:18.401Z,96.50
2022-10-30T00:42:48.398Z,96.50
2022-10-30T00:45:20.697Z,96.80
2022-10-30T00:47:58.231Z,97.30
2022-10-30T00:50:33.097Z,97.50
2022-10-30T00:53:11.192Z,97.20
2022-10-30T00:55:46.744Z,98.40
2022-10-30T00:58:21.477Z,98.60
2022-10-30T01:00:55.318Z,98.70
2022-10-30T01:03:27.155Z,98.50
2022-10-30T01:06:01.160Z,98.50
2022-10-30T01:08:32.204Z,98.60
2022-10-30T01:11:06.822Z,98.90
2022-10-30T01:13:39.389Z,99.00
2022-10-30T01:16:24.962Z,99.20
2022-10-30T01:19:03.399Z,99.80
2022-10-30T01:21:51.437Z,99.90
2022-10-30T01:24:42.946Z,99.90
2022-10-30T01:27:32.827Z,99.90
2022-10-30T01:30:16.281Z,99.90
2022-10-30T01:32:59.094Z,99.90
2022-10-30T01:35:39.123Z,99.90
2022-10-30T01:38:14.785Z,99.90
2022-10-30T01:40:47.449Z,99.90
2022-10-30T01:43:19.524Z,99.90
2022-10-30T01:46:07.259Z,99.90
2022-10-30T01:49:04.234Z,99.90
2022-10-30T01:51:47.218Z,99.90
2022-10-30T01:54:31.678Z,99.90
2022-10-30T01:57:11.421Z,99.90
2022-10-30T01:59:48.404Z,99.90
2022-10-30T02:02:19.412Z,99.90
2022-10-30T02:04:51.301Z,99.90
2022-10-30T02:07:22.643Z,99.90
2022-10-30T02:09:55.844Z,99.90
2022-10-30T02:12:28.314Z,99.90
2022-10-30T02:15:02.946Z,99.90
2022-10-30T02:17:32.954Z,99.90
2022-10-30T02:20:03.386Z,99.90
2022-10-30T02:22:35.789Z,99.90
2022-10-30T02:25:07.004Z,99.90
2022-10-30T02:27:37.623Z,99.90
2022-10-30T02:30:08.982Z,99.90
2022-10-30T02:32:40.324Z,99.90
2022-10-30T02:35:11.464Z,99.90
2022-10-30T02:37:44.345Z,99.90
2022-10-30T02:40:15.294Z,99.90
2022-10-30T02:42:47.564Z,99.90
2022-10-30T02:45:18.604Z,99.90
2022-10-30T02:47:48.968Z,99.90
2022-10-30T02:50:20.785Z,99.90
2022-10-30T02:52:56.081Z,99.90
2022-10-30T02:55:27.485Z,99.90
2022-10-30T02:57:58.733Z,99.90
2022-10-30T03:00:29.454Z,99.90
2022-10-30T03:03:01.114Z,99.90
2022-10-30T03:05:34.914Z,99.90
2022-10-30T03:08:09.134Z,99.90
2022-10-30T03:10:39.238Z,99.90
2022-10-30T03:13:08.963Z,99.90
2022-10-30T03:15:40.415Z,99.90
2022-10-30T03:18:11.859Z,99.90
2022-10-30T03:20:44.660Z,99.90
2022-10-30T03:23:16.807Z,99.90
2022-10-30T03:25:47.647Z,99.90
2022-10-30T03:28:19.098Z,99.90
2022-10-30T03:30:49.328Z,99.90
2022-10-30T03:33:20.559Z,99.90
2022-10-30T03:35:50.879Z,99.90
2022-10-30T03:38:23.767Z,99.90
2022-10-30T03:40:56.142Z,99.90
2022-10-30T03:43:27.895Z,99.90
2022-10-30T03:45:59.029Z,99.90
2022-10-30T03:48:31.404Z,99.90
2022-10-30T03:51:03.689Z,99.90
2022-10-30T03:53:36.766Z,99.90
2022-10-30T03:56:08.106Z,99.90
2022-10-30T03:58:48.465Z,99.90
2022-10-30T04:01:23.518Z,99.90
2022-10-30T04:03:59.565Z,99.90
2022-10-30T04:06:29.679Z,99.90
2022-10-30T04:09:01.651Z,99.90
2022-10-30T04:11:40.171Z,99.90
2022-10-30T04:14:10.583Z,99.90
2022-10-30T04:16:41.117Z,99.90
2022-10-30T04:19:11.768Z,99.90
2022-10-30T04:21:44.125Z,99.90
2022-10-30T04:24:19.372Z,99.90
2022-10-30T04:26:53.566Z,99.90
2022-10-30T04:29:24.712Z,99.90
2022-10-30T04:31:56.758Z,99.90
2022-10-30T04:34:27.010Z,99.90
2022-10-30T04:36:57.553Z,99.90
2022-10-30T04:39:29.552Z,99.90
2022-10-30T04:42:06.590Z,99.90
2022-10-30T04:44:39.370Z,99.90
2022-10-30T04:47:11.817Z,99.90
2022-10-30T04:49:42.268Z,99.90
2022-10-30T04:52:12.489Z,99.90
2022-10-30T04:54:45.765Z,99.90
2022-10-30T04:57:15.891Z,99.90
2022-10-30T04:59:47.151Z,99.90
2022-10-30T05:02:20.285Z,99.90
2022-10-30T05:04:52.301Z,99.90
2022-10-30T05:07:23.350Z,99.90
2022-10-30T05:09:56.323Z,99.90
2022-10-30T05:12:26.549Z,99.90
2022-10-30T05:14:59.827Z,99.90
2022-10-30T05:20:06.842Z,99.90
2022-10-30T05:22:37.470Z,99.90
2022-10-30T05:25:11.789Z,99.90
2022-10-30T05:27:42.410Z,99.90
2022-10-30T05:30:13.689Z,99.90
2022-10-30T05:32:45.931Z,99.90
2022-10-30T05:35:16.856Z,99.90
2022-10-30T05:37:49.053Z,99.90
2022-10-30T05:40:21.919Z,99.90
2022-10-30T05:42:52.705Z,99.90
2022-10-30T05:45:25.030Z,99.90
2022-10-30T05:48:01.648Z,99.90
2022-10-30T05:50:38.150Z,99.90
2022-10-30T05:53:37.571Z,99.90
2022-10-30T05:56:12.290Z,99.90
2022-10-30T05:58:42.429Z,99.90
2022-10-30T06:01:15.331Z,99.90
2022-10-30T06:03:51.042Z,99.90
2022-10-30T06:06:21.679Z,99.90
2022-10-30T06:08:53.031Z,99.90
2022-10-30T06:11:51.426Z,99.90
2022-10-30T06:14:25.829Z,99.90
2022-10-30T06:16:55.855Z,99.90
2022-10-30T06:19:36.409Z,99.90
2022-10-30T06:22:28.042Z,99.90
2022-10-30T06:25:06.251Z,99.90
2022-10-30T06:27:58.388Z,99.90
2022-10-30T06:30:31.557Z,99.90
2022-10-30T06:33:03.850Z,99.90
2022-10-30T06:35:36.213Z,99.90
2022-10-30T06:38:07.171Z,99.90
2022-10-30T06:40:39.725Z,99.90
2022-10-30T06:43:30.347Z,99.90
2022-10-30T06:46:26.929Z,99.90
2022-10-30T06:49:01.695Z,99.90
2022-10-30T06:51:34.480Z,99.90
2022-10-30T06:54:21.893Z,99.90
2022-10-30T06:57:23.666Z,99.90
2022-10-30T07:00:17.128Z,99.90
2022-10-30T07:03:20.738Z,99.90
2022-10-30T07:05:56.693Z,99.90
2022-10-30T07:08:26.895Z,99.90
2022-10-30T07:10:59.688Z,99.90
2022-10-30T07:13:30.529Z,99.90
2022-10-30T07:16:22.869Z,99.90
2022-10-30T07:18:59.305Z,99.90
2022-10-30T07:21:33.971Z,99.90
2022-10-30T07:24:10.006Z,99.90
2022-10-30T07:26:54.328Z,99.90
2022-10-30T07:29:51.630Z,99.90
2022-10-30T07:32:30.651Z,99.90
2022-10-30T07:35:18.593Z,99.90
2022-10-30T07:38:06.529Z,99.90
2022-10-30T07:40:56.017Z,99.90
2022-10-30T07:44:05.255Z,99.90
2022-10-30T07:47:01.776Z,99.90
2022-10-30T07:49:52.270Z,99.90
2022-10-30T07:52:22.809Z,99.90
2022-10-30T07:54:54.860Z,99.90
2022-10-30T07:57:45.049Z,99.90
2022-10-30T08:00:33.711Z,99.90
2022-10-30T08:03:16.822Z,99.90
2022-10-30T08:06:02.514Z,99.90
2022-10-30T08:08:43.310Z,99.90
2022-10-30T08:11:27.949Z,99.90
2022-10-30T08:14:01.132Z,99.90
2022-10-30T08:16:31.865Z,99.90
2022-10-30T08:19:01.977Z,99.90
2022-10-30T08:21:35.290Z,99.90
2022-10-30T08:24:19.948Z,99.90
2022-10-30T08:26:54.474Z,99.90
2022-10-30T08:29:26.830Z,99.90
2022-10-30T08:31:58.699Z,99.90
2022-10-30T08:34:48.789Z,99.50
2022-10-30T08:37:22.889Z,99.80
2022-10-30T08:39:53.385Z,98.70
2022-10-30T08:42:49.767Z,98.20
2022-10-30T08:45:31.060Z,98.90
2022-10-30T08:48:16.385Z,99.40
2022-10-30T08:50:48.684Z,99.00
2022-10-30T08:53:28.125Z,97.40
2022-10-30T08:55:59.352Z,97.30
2022-10-30T08:58:43.004Z,96.90
2022-10-30T09:01:15.343Z,96.60
2022-10-30T09:04:07.004Z,95.90
2022-10-30T09:07:10.357Z,95.80
2022-10-30T09:10:08.567Z,97.20
2022-10-30T09:12:40.648Z,96.20
2022-10-30T09:15:12.395Z,96.40
2022-10-30T09:18:01.294Z,96.30
2022-10-30T09:20:33.004Z,95.20
2022-10-30T09:23:05.067Z,93.90
2022-10-30T09:25:38.768Z,94.30
2022-10-30T09:28:19.456Z,96.30
2022-10-30T09:31:12.805Z,93.90
2022-10-30T09:33:43.709Z,94.20
2022-10-30T09:36:34.355Z,94.60
2022-10-30T09:39:05.172Z,95.00
2022-10-30T09:42:08.794Z,94.50
2022-10-30T09:45:15.212Z,93.50
2022-10-30T09:47:54.187Z,92.60
2022-10-30T09:50:30.168Z,92.70
2022-10-30T09:53:14.385Z,94.20
2022-10-30T09:55:52.083Z,94.20
2022-10-30T09:58:32.745Z,91.10
2022-10-30T10:01:15.568Z,91.30
2022-10-30T10:04:09.468Z,91.20
2022-10-30T10:06:53.587Z,90.90
2022-10-30T10:10:02.421Z,90.50
2022-10-30T10:13:01.093Z,89.10
2022-10-30T10:15:44.944Z,90.10
2022-10-30T10:18:21.181Z,89.40
2022-10-30T10:20:57.477Z,89.20
2022-10-30T10:23:36.604Z,87.40
2022-10-30T10:26:19.943Z,88.40
2022-10-30T10:29:03.048Z,85.30
2022-10-30T10:31:46.068Z,83.00
2022-10-30T10:34:42.199Z,82.90
2022-10-30T10:37:24.216Z,84.40
2022-10-30T10:40:11.845Z,82.70
2022-10-30T10:42:51.274Z,82.70
2022-10-30T10:45:30.405Z,79.40
2022-10-30T10:48:17.513Z,78.40
2022-10-30T10:50:51.833Z,79.50
2022-10-30T10:53:26.976Z,79.60
2022-10-30T10:56:02.727Z,76.40
2022-10-30T10:58:36.944Z,75.30
2022-10-30T11:01:16.501Z,74.90
2022-10-30T11:03:57.144Z,73.80
2022-10-30T11:06:31.775Z,75.70
2022-10-30T11:09:21.342Z,73.90
2022-10-30T11:11:52.887Z,75.00
2022-10-30T11:14:25.580Z,72.50
2022-10-30T11:17:06.148Z,74.30
2022-10-30T11:19:38.207Z,74.10
2022-10-30T11:22:23.370Z,74.70
2022-10-30T11:24:54.775Z,73.50
2022-10-30T11:27:32.311Z,72.40
2022-10-30T11:30:04.741Z,72.50
2022-10-30T11:32:36.730Z,72.20
2022-10-30T11:35:15.613Z,72.80
2022-10-30T11:37:48.895Z,73.00
2022-10-30T11:40:22.775Z,72.90
2022-10-30T11:43:01.768Z,70.90
2022-10-30T11:45:36.117Z,71.10
2022-10-30T11:48:14.331Z,70.20
2022-10-30T11:50:50.702Z,69.10
2022-10-30T11:53:30.864Z,65.90
2022-10-30T11:56:01.578Z,66.70
2022-10-30T11:58:35.296Z,69.10
2022-10-30T12:01:08.385Z,67.00
2022-10-30T12:03:39.617Z,65.60
2022-10-30T12:06:18.967Z,66.90
2022-10-30T12:09:06.076Z,67.00
2022-10-30T12:11:37.415Z,66.10
2022-10-30T12:14:07.965Z,65.30
2022-10-30T12:16:44.415Z,63.90
2022-10-30T12:19:18.336Z,63.50
2022-10-30T12:21:54.693Z,62.50
2022-10-30T12:24:32.903Z,62.10
2022-10-30T12:27:08.960Z,61.40
2022-10-30T12:30:07.449Z,59.80
2022-10-30T12:32:48.308Z,60.60
2022-10-30T12:35:43.936Z,60.30
2022-10-30T12:38:23.130Z,60.80
2022-10-30T12:41:04.549Z,58.90
2022-10-30T12:43:38.455Z,58.30
2022-10-30T12:46:23.827Z,58.40
2022-10-30T12:48:57.943Z,57.80
2022-10-30T12:51:37.896Z,56.90
2022-10-30T12:54:26.549Z,58.50
2022-10-30T12:57:08.966Z,58.70
2022-10-30T12:59:50.650Z,57.50
2022-10-30T13:02:34.416Z,56.60
2022-10-30T13:05:09.208Z,56.50
2022-10-30T13:07:47.011Z,55.20
2022-10-30T13:10:30.335Z,55.40
2022-10-30T13:13:13.071Z,56.90
2022-10-30T13:15:51.269Z,56.50
2022-10-30T13:18:24.662Z,57.30
2022-10-30T13:21:09.116Z,57.10
2022-10-30T13:23:50.802Z,56.30
2022-10-30T13:26:29.218Z,57.10
2022-10-30T13:29:09.581Z,56.70
2022-10-30T13:31:53.950Z,54.50
2022-10-30T13:34:36.560Z,55.40
2022-10-30T13:37:16.079Z,55.30
2022-10-30T13:39:56.452Z,54.90
2022-10-30T13:42:48.281Z,55.60
2022-10-30T13:45:40.611Z,54.80
2022-10-30T13:48:19.839Z,53.90
2022-10-30T13:51:08.300Z,53.90
2022-10-30T13:53:41.085Z,53.10
2022-10-30T13:56:19.290Z,52.40
2022-10-30T13:59:00.570Z,53.50
2022-10-30T14:01:37.806Z,53.40
2022-10-30T14:04:12.266Z,53.10
2022-10-30T14:06:48.334Z,54.60
2022-10-30T14:09:27.561Z,53.00
2022-10-30T14:11:58.291Z,53.80
2022-10-30T14:14:36.511Z,53.10
2022-10-30T14:17:16.760Z,52.00
2022-10-30T14:20:24.461Z,53.10
2022-10-30T14:23:11.791Z,52.70
2022-10-30T14:25:43.429Z,53.00
2022-10-30T14:28:22.371Z,52.20
2022-10-30T14:31:05.699Z,52.00
2022-10-30T14:33:48.309Z,53.10
2022-10-30T14:36:23.451Z,53.20
2022-10-30T14:39:23.981Z,52.60
2022-10-30T14:42:07.820Z,53.10
2022-10-30T14:45:09.474Z,52.80
2022-10-30T14:47:58.337Z,54.20
2022-10-30T14:50:46.125Z,53.70
2022-10-30T14:53:33.386Z,53.90
2022-10-30T14:56:09.072Z,54.10
2022-10-30T14:58:40.895Z,54.40
2022-10-30T15:01:28.595Z,54.40
2022-10-30T15:04:22.393Z,54.30
2022-10-30T15:07:04.495Z,54.80
2022-10-30T15:09:46.895Z,55.90
2022-10-30T15:12:38.334Z,57.40
2022-10-30T15:15:14.478Z,57.00
2022-10-30T15:17:48.602Z,56.80
2022-10-30T15:20:24.041Z,57.30
2022-10-30T15:23:00.554Z,58.40
2022-10-30T15:25:36.366Z,59.80
2022-10-30T15:28:08.215Z,61.20
2022-10-30T15:30:40.647Z,62.80
2022-10-30T15:33:24.142Z,63.90
2022-10-30T15:35:55.788Z,65.90
2022-10-30T15:38:26.823Z,66.60
2022-10-30T15:41:01.858Z,68.10
2022-10-30T15:43:34.952Z,69.40
2022-10-30T15:46:13.777Z,70.60
2022-10-30T15:48:49.924Z,71.30
2022-10-30T15:51:26.503Z,73.10
2022-10-30T15:53:58.378Z,74.30
2022-10-30T15:56:32.375Z,76.40
2022-10-30T15:59:07.106Z,77.90
2022-10-30T16:01:39.699Z,79.50
2022-10-30T16:04:17.672Z,80.90
2022-10-30T16:06:56.395Z,82.50
2022-10-30T16:09:28.057Z,84.10
2022-10-30T16:12:02.104Z,85.20
2022-10-30T16:14:33.714Z,86.30
2022-10-30T16:17:05.275Z,87.50
2022-10-30T16:19:41.544Z,88.90
2022-10-30T16:22:17.898Z,89.80
2022-10-30T16:24:50.184Z,90.00
2022-10-30T16:27:22.344Z,90.60
2022-10-30T16:29:55.944Z,91.30
2022-10-30T16:32:30.455Z,91.90
2022-10-30T16:35:02.844Z,92.30
2022-10-30T16:37:39.501Z,92.40
2022-10-30T16:40:16.085Z,92.90
2022-10-30T16:42:53.064Z,93.60
2022-10-30T16:45:49.814Z,94.10
2022-10-30T16:48:37.627Z,94.70
2022-10-30T16:51:08.165Z,95.20
2022-10-30T16:53:40.733Z,95.40
2022-10-30T16:56:27.644Z,95.40
2022-10-30T16:59:08.933Z,95.60
2022-10-30T17:01:39.941Z,96.40
2022-10-30T17:04:16.003Z,96.60
2022-10-30T17:06:48.813Z,97.40
2022-10-30T17:09:28.976Z,97.90
2022-10-30T17:12:15.283Z,98.10
2022-10-30T17:14:55.623Z,98.50
2022-10-30T17:17:32.189Z,98.90
2022-10-30T17:20:06.864Z,98.80
2022-10-30T17:22:37.664Z,98.70
2022-10-30T17:25:20.994Z,99.10
2022-10-30T17:27:54.086Z,99.00
2022-10-30T17:30:43.027Z,99.00
2022-10-30T17:33:37.722Z,99.60
2022-10-30T17:36:09.284Z,99.90
2022-10-30T17:38:40.605Z,99.90
2022-10-30T17:41:17.303Z,99.80
2022-10-30T17:43:53.164Z,99.90
2022-10-30T17:46:24.391Z,99.90
2022-10-30T17:48:54.636Z,99.90
2022-10-30T17:51:24.743Z,99.90
2022-10-30T17:53:55.474Z,99.90
2022-10-30T17:56:30.303Z,99.60
2022-10-30T17:59:01.254Z,99.40
2022-10-30T18:01:32.503Z,99.50
2022-10-30T18:04:03.955Z,99.70
2022-10-30T18:06:34.274Z,99.70
2022-10-30T18:09:04.184Z,99.70
2022-10-30T18:11:36.150Z,99.90
2022-10-30T18:14:06.775Z,99.90
2022-10-30T18:16:36.897Z,99.90
2022-10-30T18:19:11.814Z,99.90
2022-10-30T18:21:42.343Z,99.90
2022-10-30T18:24:16.265Z,99.90
2022-10-30T18:26:48.124Z,99.90
2022-10-30T18:29:19.254Z,99.90
2022-10-30T18:31:49.584Z,99.90
2022-10-30T18:34:21.858Z,99.90
2022-10-30T18:36:54.340Z,99.90
2022-10-30T18:39:24.494Z,99.90
2022-10-30T18:41:55.804Z,99.90
2022-10-30T18:44:26.026Z,99.90
2022-10-30T18:47:02.511Z,99.90
2022-10-30T18:49:33.945Z,99.90
2022-10-30T18:52:04.167Z,99.90
2022-10-30T18:54:35.095Z,99.90
2022-10-30T18:57:08.707Z,99.90
2022-10-30T18:59:38.909Z,99.90
2022-10-30T19:02:22.003Z,99.90
2022-10-30T19:04:56.877Z,99.90
2022-10-30T19:07:27.005Z,99.90
2022-10-30T19:10:00.171Z,99.90
2022-10-30T19:12:31.573Z,99.90
2022-10-30T19:15:02.676Z,99.90
2022-10-30T19:17:32.477Z,99.90
2022-10-30T19:20:02.432Z,99.90
2022-10-30T19:22:33.549Z,99.90
2022-10-30T19:25:04.151Z,99.90
2022-10-30T19:27:36.853Z,99.90
2022-10-30T19:30:09.426Z,99.90
2022-10-30T19:32:40.162Z,99.90
2022-10-30T19:35:13.040Z,99.90
2022-10-30T19:37:44.491Z,99.90
2022-10-30T19:40:22.085Z,99.90
2022-10-30T19:42:54.477Z,99.90
2022-10-30T19:45:27.763Z,99.90
2022-10-30T19:47:59.450Z,99.90
2022-10-30T19:50:32.502Z,99.90
2022-10-30T19:53:04.262Z,99.90
2022-10-30T19:55:37.141Z,99.90
2022-10-30T19:58:10.630Z,99.90
2022-10-30T20:00:42.469Z,99.90
2022-10-30T20:03:15.083Z,99.90
2022-10-30T20:05:50.930Z,99.90
2022-10-30T20:08:22.281Z,99.90
2022-10-30T20:10:54.751Z,99.90
2022-10-30T20:13:28.970Z,99.90
2022-10-30T20:16:01.240Z,99.90
2022-10-30T20:18:33.822Z,99.90
2022-10-30T20:21:05.981Z,99.90
2022-10-30T20:23:35.899Z,99.90
2022-10-30T20:26:08.788Z,99.90
2022-10-30T20:28:42.496Z,99.90
2022-10-30T20:31:14.660Z,99.90
2022-10-30T20:33:45.283Z,99.90
2022-10-30T20:36:16.538Z,99.90
2022-10-30T20:38:47.153Z,99.90
2022-10-30T20:41:25.787Z,99.90
2022-10-30T20:43:59.679Z,99.90
2022-10-30T20:46:30.014Z,99.90
2022-10-30T20:49:07.578Z,99.90
2022-10-30T20:51:47.965Z,99.90
2022-10-30T20:54:19.183Z,99.90
2022-10-30T20:56:50.149Z,99.90
2022-10-30T20:59:23.339Z,99.90
2022-10-30T21:01:53.814Z,99.90
2022-10-30T21:04:24.387Z,99.90
2022-10-30T21:06:59.120Z,99.90
2022-10-30T21:09:29.759Z,99.90
2022-10-30T21:11:59.571Z,99.90
2022-10-30T21:14:31.012Z,99.90
2022-10-30T21:17:05.739Z,99.90
2022-10-30T21:19:36.079Z,99.90
2022-10-30T21:22:07.309Z,99.90
2022-10-30T21:24:38.248Z,99.90
2022-10-30T21:27:09.603Z,99.90
2022-10-30T21:29:40.902Z,99.90
2022-10-30T21:32:10.949Z,99.90
2022-10-30T21:34:40.970Z,99.90
2022-10-30T21:37:11.501Z,99.90
2022-10-30T21:39:42.028Z,99.90
2022-10-30T21:42:13.081Z,99.90
2022-10-30T21:44:45.033Z,99.90
2022-10-30T21:47:16.691Z,99.90
2022-10-30T21:49:47.004Z,99.90
2022-10-30T21:52:17.042Z,99.90
2022-10-30T21:54:48.165Z,99.90
2022-10-30T21:57:18.502Z,99.90
2022-10-30T21:59:50.262Z,99.90
2022-10-30T22:02:19.972Z,99.90
2022-10-30T22:04:50.191Z,99.90
2022-10-30T22:07:21.433Z,99.90
2022-10-30T22:09:51.954Z,99.90
2022-10-30T22:12:22.194Z,99.90
2022-10-30T22:14:54.362Z,99.90
2022-10-30T22:17:24.785Z,99.90
2022-10-30T22:19:54.487Z,99.90
2022-10-30T22:22:24.390Z,99.90
2022-10-30T22:24:55.136Z,99.90
2022-10-30T22:27:24.954Z,99.90
2022-10-30T22:29:57.957Z,99.90
2022-10-30T22:32:28.199Z,99.90
2022-10-30T22:34:59.397Z,99.90
2022-10-30T22:37:28.907Z,99.80
2022-10-30T22:40:01.685Z,98.70
2022-10-30T22:42:31.494Z,98.30
2022-10-30T22:45:03.689Z,97.90
2022-10-30T22:47:34.189Z,97.60
2022-10-30T22:50:05.130Z,97.40
2022-10-30T22:52:35.172Z,97.20
2022-10-30T22:55:05.061Z,96.80
2022-10-30T22:57:35.589Z,96.80
2022-10-30T23:00:08.269Z,96.50
2022-10-30T23:02:38.590Z,96.60
2022-10-30T23:05:09.329Z,96.50
2022-10-30T23:07:39.861Z,96.70
2022-10-30T23:10:11.306Z,96.50
2022-10-30T23:12:41.319Z,96.50
2022-10-30T23:15:13.786Z,96.10
2022-10-30T23:17:43.713Z,96.20
2022-10-30T23:20:14.595Z,96.10
2022-10-30T23:22:44.767Z,96.20
2022-10-30T23:25:16.627Z,96.30
2022-10-30T23:27:48.998Z,96.00
2022-10-30T23:30:20.961Z,95.90
2022-10-30T23:32:51.276Z,95.60
2022-10-30T23:35:22.018Z,95.40
2022-10-30T23:37:51.728Z,95.20
2022-10-30T23:40:25.032Z,95.10
2022-10-30T23:42:56.552Z,94.80
2022-10-30T23:45:29.756Z,94.80
2022-10-30T23:48:00.496Z,94.80
2022-10-30T23:50:31.617Z,94.90
2022-10-30T23:53:01.866Z,95.00
2022-10-30T23:55:31.885Z,95.00
2022-10-30T23:58:02.869Z,95.10
